Time;durP1;ratioP1;P1;durP2;ratioP2;P2;SDS_P1;SDS_P2;PMS_P1;PMS_P2;Temp;Humidity;BMP_temperature;BMP_pressure;BME280_temperature;BME280_humidity;BME280_pressure;Samples;Min_cycle;Max_cycle;Signal;HPM_P1;HPM_P2
2023/12/09 00:02:00;;;;;;;83.53;26.48;;;;;;;5.46;60.97;101156.88;4996468;28;20069;-41
2023/12/09 00:04:26;;;;;;;84.55;29.45;;;;;;;5.48;61.07;101162.91;5002380;28;20033;-40
2023/12/09 00:06:51;;;;;;;80.05;26.17;;;;;;;5.59;60.77;101165.19;4998196;28;20064;-39
2023/12/09 00:09:19;;;;;;;89.00;29.27;;;;;;;5.56;60.58;101163.53;5009466;28;20034;-41
2023/12/09 00:11:45;;;;;;;80.60;26.75;;;;;;;5.62;60.81;101165.94;5000457;28;20549;-40
2023/12/09 00:14:10;;;;;;;76.78;29.48;;;;;;;5.59;60.95;101159.97;5004164;28;20113;-39
2023/12/09 00:16:36;;;;;;;87.38;30.88;;;;;;;5.55;60.93;101155.72;4999712;28;20100;-40
2023/12/09 00:19:02;;;;;;;86.75;28.83;;;;;;;5.62;60.64;101157.28;5008027;28;20045;-39
2023/12/09 00:21:27;;;;;;;79.20;26.65;;;;;;;5.67;60.72;101154.53;5001864;28;20547;-39
2023/12/09 00:23:53;;;;;;;77.63;26.85;;;;;;;5.69;60.28;101148.34;4999443;28;20025;-39
2023/12/09 00:26:18;;;;;;;82.30;28.63;;;;;;;5.73;60.38;101149.97;5011007;28;20042;-40
2023/12/09 00:28:45;;;;;;;80.25;28.08;;;;;;;5.71;60.52;101150.91;5006872;28;20054;-39
2023/12/09 00:31:10;;;;;;;87.30;28.17;;;;;;;5.69;60.34;101144.88;5001604;28;20116;-40
2023/12/09 00:33:36;;;;;;;87.85;30.35;;;;;;;5.71;60.61;101146.53;5008736;28;20821;-39
2023/12/09 00:36:01;;;;;;;69.57;23.85;;;;;;;5.71;60.37;101143.94;5006834;28;20456;-40
2023/12/09 00:38:27;;;;;;;75.03;27.98;;;;;;;5.75;60.39;101145.53;5008398;28;20038;-40
2023/12/09 00:40:52;;;;;;;83.50;28.48;;;;;;;5.81;60.00;101144.50;5002999;28;20072;-40
2023/12/09 00:43:17;;;;;;;72.75;26.38;;;;;;;5.82;60.21;101141.00;5006771;28;20049;-39
2023/12/09 00:45:43;;;;;;;80.45;27.45;;;;;;;5.80;60.26;101146.28;4999549;28;20032;-41
2023/12/09 00:48:08;;;;;;;83.95;29.80;;;;;;;5.80;59.94;101151.50;5000803;28;20973;-40
2023/12/09 00:50:34;;;;;;;82.40;28.63;;;;;;;5.84;59.97;101151.38;5007244;28;20034;-39
2023/12/09 00:53:00;;;;;;;80.60;29.08;;;;;;;5.68;60.63;101148.41;4999539;28;20111;-40
2023/12/09 00:55:25;;;;;;;75.60;29.55;;;;;;;5.75;60.57;101152.50;5009595;28;20029;-42
2023/12/09 00:57:50;;;;;;;81.82;26.95;;;;;;;5.79;60.26;101144.56;5008882;28;21004;-40
2023/12/09 01:00:16;;;;;;;82.82;28.75;;;;;;;5.78;60.10;101153.28;5005713;28;20029;-39
2023/12/09 01:02:42;;;;;;;92.95;30.52;;;;;;;5.75;60.42;101142.06;5001487;28;20427;-41
2023/12/09 01:05:07;;;;;;;84.45;31.50;;;;;;;5.80;60.32;101150.63;5004699;28;20022;-39
2023/12/09 01:07:33;;;;;;;75.05;28.48;;;;;;;5.80;60.44;101146.28;5003913;28;20037;-42
2023/12/09 01:09:58;;;;;;;84.75;27.90;;;;;;;5.83;60.05;101149.66;5007707;28;20030;-40
2023/12/09 01:12:24;;;;;;;69.10;26.95;;;;;;;5.84;60.06;101147.03;5010605;28;20050;-39
2023/12/09 01:14:49;;;;;;;71.20;26.88;;;;;;;5.82;60.28;101153.19;5003561;28;20034;-39
2023/12/09 01:17:14;;;;;;;87.63;27.98;;;;;;;5.84;59.98;101153.97;5009201;28;20562;-40
2023/12/09 01:19:40;;;;;;;73.78;27.27;;;;;;;5.86;60.16;101157.41;5004083;28;20072;-40
2023/12/09 01:22:05;;;;;;;82.65;29.33;;;;;;;5.90;59.82;101152.03;5002967;28;20029;-39
2023/12/09 01:24:31;;;;;;;79.15;26.98;;;;;;;5.90;59.81;101156.41;5006859;28;20038;-41
2023/12/09 01:26:56;;;;;;;78.18;28.30;;;;;;;5.88;59.83;101158.22;5005937;28;20061;-41
2023/12/09 01:29:22;;;;;;;76.20;25.80;;;;;;;5.89;60.16;101155.56;5007161;28;20408;-40
2023/12/09 01:31:47;;;;;;;77.65;28.70;;;;;;;5.87;60.14;101159.13;4994880;28;20112;-39
2023/12/09 01:34:13;;;;;;;72.30;26.38;;;;;;;5.88;60.01;101160.81;5004389;28;20076;-38
2023/12/09 01:36:38;;;;;;;81.75;27.33;;;;;;;5.88;60.31;101153.88;5002301;28;20030;-37
2023/12/09 01:39:04;;;;;;;68.55;26.48;;;;;;;5.92;60.11;101159.84;5005508;28;20477;-37
2023/12/09 01:41:29;;;;;;;78.00;27.58;;;;;;;5.90;60.01;101156.41;5004556;28;21185;-40
2023/12/09 01:43:54;;;;;;;75.72;27.48;;;;;;;5.86;60.09;101160.00;5006375;28;20061;-41
2023/12/09 01:46:21;;;;;;;70.03;26.55;;;;;;;6.03;59.79;101157.75;5003583;28;20037;-38
2023/12/09 01:48:47;;;;;;;82.03;26.95;;;;;;;6.12;59.30;101166.22;5002228;28;20373;-39
2023/12/09 01:51:15;;;;;;;79.68;27.40;;;;;;;6.14;59.67;101169.63;4998270;28;20780;-40
2023/12/09 01:53:40;;;;;;;67.03;25.25;;;;;;;6.14;59.38;101167.00;4998163;28;20022;-42
2023/12/09 01:56:10;;;;;;;69.55;25.45;;;;;;;6.18;59.40;101166.00;4998568;28;20033;-40
2023/12/09 01:58:37;;;;;;;81.38;29.23;;;;;;;6.12;59.33;101156.63;5001717;28;20725;-40
2023/12/09 02:01:03;;;;;;;92.78;30.10;;;;;;;6.03;59.68;101152.53;5005653;28;20038;-40
2023/12/09 02:03:31;;;;;;;72.65;29.10;;;;;;;6.05;59.75;101155.97;5004972;28;20034;-40
2023/12/09 02:05:57;;;;;;;71.82;26.17;;;;;;;6.03;59.90;101152.53;4998515;28;20029;-40
2023/12/09 02:08:22;;;;;;;69.53;25.83;;;;;;;6.02;59.96;101152.59;4999959;28;20034;-40
2023/12/09 02:10:59;;;;;;;65.68;24.95;;;;;;;6.07;59.43;101154.16;5006497;28;20026;-39
2023/12/09 02:13:38;;;;;;;70.60;24.10;;;;;;;6.05;59.79;101144.66;5004427;28;20034;-40
2023/12/09 02:16:11;;;;;;;80.45;27.33;;;;;;;5.97;59.91;101150.09;5006875;28;20064;-40
2023/12/09 02:18:39;;;;;;;67.72;25.02;;;;;;;6.02;59.90;101153.44;5006371;28;20033;-40
2023/12/09 02:21:05;;;;;;;69.18;25.92;;;;;;;5.98;59.81;101150.94;5004435;28;20037;-41
2023/12/09 02:23:30;;;;;;;68.40;23.65;;;;;;;5.98;59.96;101154.41;5016166;28;20040;-38
2023/12/09 02:26:04;;;;;;;69.65;24.27;;;;;;;6.04;60.01;101156.03;5002941;28;20028;-40
2023/12/09 02:28:31;;;;;;;68.70;27.52;;;;;;;6.02;59.98;101150.81;4999145;28;20034;-39
2023/12/09 02:31:11;;;;;;;71.43;24.27;;;;;;;6.05;59.91;101153.34;4996277;28;20120;-41
2023/12/09 02:33:40;;;;;;;70.93;24.60;;;;;;;6.02;60.03;101150.81;5006105;28;20029;-40
2023/12/09 02:36:07;;;;;;;35.10;14.45;;;;;;;6.02;59.98;101150.81;4997737;28;20088;-41
2023/12/09 02:38:37;;;;;;;66.50;23.15;;;;;;;6.00;60.01;101149.19;5011344;28;20041;-39
2023/12/09 02:41:05;;;;;;;64.28;24.33;;;;;;;6.03;60.18;101147.31;4999189;28;20029;-42
2023/12/09 02:43:31;;;;;;;78.50;25.02;;;;;;;6.02;60.16;101150.00;5001079;28;20096;-39
2023/12/09 02:45:57;;;;;;;63.53;26.48;;;;;;;6.02;59.85;101148.22;4998449;28;20400;-40
2023/12/09 02:48:23;;;;;;;65.80;25.55;;;;;;;6.01;60.01;101149.13;5000322;28;20080;-40
2023/12/09 02:50:49;;;;;;;63.95;24.33;;;;;;;6.03;60.14;101149.09;5002380;28;20038;-39
2023/12/09 02:53:14;;;;;;;71.68;23.38;;;;;;;6.02;60.00;101142.16;4998647;28;20642;-41
2023/12/09 02:55:40;;;;;;;73.78;25.23;;;;;;;6.04;59.97;101146.41;5002057;28;20070;-41
2023/12/09 02:58:06;;;;;;;71.88;24.35;;;;;;;6.06;59.72;101157.66;5003871;28;20493;-39
2023/12/09 03:00:31;;;;;;;67.00;23.95;;;;;;;6.08;59.91;101144.53;5004972;28;20053;-39
2023/12/09 03:02:56;;;;;;;69.38;25.23;;;;;;;6.07;60.05;101140.22;5008400;28;20575;-39
2023/12/09 03:05:22;;;;;;;54.80;21.05;;;;;;;6.08;59.63;101144.53;5003739;28;20485;-40
2023/12/09 03:07:47;;;;;;;63.58;22.90;;;;;;;6.10;59.71;101137.50;5003072;28;20025;-40
2023/12/09 03:10:13;;;;;;;63.30;22.58;;;;;;;6.08;59.76;101134.97;5001037;28;20030;-39
2023/12/09 03:12:38;;;;;;;56.53;20.65;;;;;;;6.08;59.99;101132.34;5000184;28;20120;-41
2023/12/09 03:15:05;;;;;;;54.58;22.65;;;;;;;6.09;59.75;101125.34;5009722;28;20050;-39
2023/12/09 03:17:33;;;;;;;61.53;23.85;;;;;;;6.11;59.76;101123.56;5006049;28;20669;-40
2023/12/09 03:19:58;;;;;;;70.40;23.58;;;;;;;6.05;60.15;101118.53;5007768;28;20037;-40
2023/12/09 03:22:24;;;;;;;64.28;23.58;;;;;;;6.05;60.16;101122.00;4999236;28;20037;-36
2023/12/09 03:24:49;;;;;;;61.10;23.60;;;;;;;6.04;59.87;101120.28;4993592;28;20099;-41
2023/12/09 03:27:15;;;;;;;62.55;23.75;;;;;;;6.03;60.00;101131.63;4993809;28;20464;-37
2023/12/09 03:29:40;;;;;;;60.78;23.35;;;;;;;6.03;60.24;101126.41;4997156;28;20116;-40
2023/12/09 03:32:06;;;;;;;55.03;21.15;;;;;;;6.05;59.71;101135.06;5004688;28;20037;-39
2023/12/09 03:34:31;;;;;;;54.78;21.55;;;;;;;6.07;60.04;101122.81;5005902;28;20030;-41
2023/12/09 03:36:57;;;;;;;63.17;23.75;;;;;;;6.07;59.97;101125.41;5008089;28;20033;-38
2023/12/09 03:39:23;;;;;;;57.58;22.50;;;;;;;6.08;60.09;101116.69;5008218;28;20077;-38
2023/12/09 03:41:49;;;;;;;57.17;22.70;;;;;;;6.07;60.14;101122.81;5013542;28;20040;-40
2023/12/09 03:44:14;;;;;;;65.07;22.67;;;;;;;6.06;60.15;101118.47;5007392;28;20112;-40
2023/12/09 03:46:40;;;;;;;52.15;22.10;;;;;;;6.08;60.11;101140.19;5009395;28;20025;-37
2023/12/09 03:49:05;;;;;;;62.35;24.27;;;;;;;6.07;60.09;101128.03;5002247;28;20027;-40
2023/12/09 03:51:31;;;;;;;59.70;24.77;;;;;;;6.08;59.91;101129.75;5008853;28;20034;-37
2023/12/09 03:53:56;;;;;;;60.22;25.55;;;;;;;6.07;60.13;101138.47;5006018;28;20116;-39
2023/12/09 03:56:22;;;;;;;54.55;20.77;;;;;;;6.09;59.62;101136.69;5006258;28;20489;-40
2023/12/09 03:58:48;;;;;;;54.95;22.23;;;;;;;6.09;59.84;101143.66;5008419;28;20175;-39
2023/12/09 04:01:14;;;;;;;61.00;22.23;;;;;;;6.09;59.59;101136.69;5009420;28;20038;-38
2023/12/09 04:03:39;;;;;;;64.05;20.40;;;;;;;6.11;59.95;101136.63;5007306;28;20053;-39
2023/12/09 04:06:05;;;;;;;47.03;21.20;;;;;;;6.07;59.83;101138.47;5013224;28;20120;-40
2023/12/09 04:08:31;;;;;;;53.90;20.92;;;;;;;6.12;59.72;101140.09;5011163;28;20480;-38
2023/12/09 04:10:57;;;;;;;44.78;19.42;;;;;;;6.10;59.90;101133.16;5007596;28;20030;-39
2023/12/09 04:13:22;;;;;;;49.47;20.33;;;;;;;6.11;59.76;101126.16;5003519;28;20397;-38
2023/12/09 04:15:48;;;;;;;47.92;18.30;;;;;;;6.10;59.98;101127.94;5000663;28;20034;-39
2023/12/09 04:18:13;;;;;;;53.05;21.75;;;;;;;6.10;59.82;101130.56;5007306;28;20045;-38
2023/12/09 04:20:39;;;;;;;55.40;19.90;;;;;;;6.13;59.68;101126.09;5009391;28;20037;-41
2023/12/09 04:23:08;;;;;;;40.20;12.57;;;;;;;6.12;59.96;101129.66;5009687;28;20112;-39
2023/12/09 04:25:33;;;;;;;55.55;20.15;;;;;;;6.12;59.89;101134.88;5013308;28;20025;-39
2023/12/09 04:27:59;;;;;;;62.30;21.70;;;;;;;6.09;59.82;101126.22;5007821;28;20040;-38
2023/12/09 04:30:24;;;;;;;54.72;22.17;;;;;;;6.10;60.09;101121.84;5008394;28;20534;-38
2023/12/09 04:32:50;;;;;;;47.63;19.20;;;;;;;6.12;59.72;101127.03;5007766;28;20034;-42
2023/12/09 04:35:15;;;;;;;51.20;21.75;;;;;;;6.08;60.06;101127.13;5003868;28;20049;-40
2023/12/09 04:37:42;;;;;;;56.65;20.35;;;;;;;6.09;60.07;101126.22;5000492;28;20041;-40
2023/12/09 04:40:10;;;;;;;52.88;21.25;;;;;;;6.09;60.03;101143.66;5006470;28;20420;-38
2023/12/09 04:42:39;;;;;;;47.63;19.63;;;;;;;6.08;60.35;101140.19;5012172;28;20033;-39
2023/12/09 04:45:06;;;;;;;49.42;20.42;;;;;;;6.10;60.25;101137.50;5000268;28;20030;-39
2023/12/09 04:47:32;;;;;;;48.25;21.10;;;;;;;6.05;60.25;101142.91;5002906;28;20409;-39
2023/12/09 04:49:58;;;;;;;45.75;20.38;;;;;;;6.07;60.23;101143.72;5009081;28;20057;-38
2023/12/09 04:52:23;;;;;;;49.67;20.60;;;;;;;6.04;60.51;101140.34;5010644;28;20104;-38
2023/12/09 04:54:49;;;;;;;46.53;20.92;;;;;;;6.07;60.06;101130.66;5007120;28;20033;-38
2023/12/09 04:57:15;;;;;;;46.90;18.13;;;;;;;6.06;60.34;101136.78;5001673;28;20113;-40
2023/12/09 04:59:40;;;;;;;52.42;20.40;;;;;;;6.08;59.99;101132.34;5004579;28;20022;-41
2023/12/09 05:02:06;;;;;;;48.03;18.63;;;;;;;6.10;60.05;101127.94;5001758;28;20049;-39
2023/12/09 05:04:32;;;;;;;26.65;11.68;;;;;;;6.16;60.21;101126.00;5003762;28;20045;-38
2023/12/09 05:06:58;;;;;;;54.90;20.08;;;;;;;6.14;59.85;101133.03;4995420;28;20492;-38
2023/12/09 05:09:23;;;;;;;41.45;17.65;;;;;;;6.15;59.96;101130.41;5004004;28;20103;-38
2023/12/09 05:11:49;;;;;;;50.75;19.40;;;;;;;6.16;59.94;101123.38;5000002;28;20054;-38
2023/12/09 05:14:14;;;;;;;51.03;19.45;;;;;;;6.17;59.83;101122.50;5006591;28;20408;-38
2023/12/09 05:16:40;;;;;;;51.22;19.05;;;;;;;6.17;59.83;101123.38;5004875;28;20038;-39
2023/12/09 05:19:06;;;;;;;58.03;21.23;;;;;;;6.16;59.98;101126.00;5005926;28;20497;-39
2023/12/09 05:21:31;;;;;;;46.33;20.02;;;;;;;6.16;60.11;101133.84;5004575;28;20481;-40
2023/12/09 05:23:57;;;;;;;50.72;19.23;;;;;;;6.17;59.85;101132.94;4993029;28;20041;-38
2023/12/09 05:26:31;;;;;;;47.35;19.30;;;;;;;6.20;59.94;101130.22;5003352;28;20041;-42
2023/12/09 05:28:57;;;;;;;58.30;21.23;;;;;;;6.16;60.01;101129.50;5011948;28;20108;-38
2023/12/09 05:31:23;;;;;;;53.97;19.83;;;;;;;6.15;60.05;101124.28;4990773;28;20042;-38
2023/12/09 05:33:49;;;;;;;56.03;22.35;;;;;;;6.15;60.25;101127.78;5006131;28;20033;-39
2023/12/09 05:36:14;;;;;;;48.08;18.85;;;;;;;6.14;60.11;101130.41;5005245;28;20037;-39
2023/12/09 05:38:41;;;;;;;56.13;22.50;;;;;;;6.13;60.17;101131.31;5010693;28;20029;-38
2023/12/09 05:41:08;;;;;;;40.70;17.35;;;;;;;6.16;59.98;101128.63;5002544;28;20495;-38
2023/12/09 05:43:37;;;;;;;51.00;20.33;;;;;;;6.20;60.06;101138.91;5012150;28;20485;-39
2023/12/09 05:46:03;;;;;;;43.63;18.83;;;;;;;6.20;60.11;101132.84;5008576;28;20069;-40
2023/12/09 05:48:29;;;;;;;46.63;18.95;;;;;;;6.18;59.79;101135.53;4998596;28;20553;-42
2023/12/09 05:50:54;;;;;;;40.55;17.73;;;;;;;6.19;60.03;101129.41;4996560;28;20033;-38
2023/12/09 05:53:21;;;;;;;41.92;19.10;;;;;;;6.21;59.92;101126.72;5004063;28;20042;-39
2023/12/09 05:55:47;;;;;;;51.35;19.75;;;;;;;6.17;59.93;101127.72;4998403;28;20034;-39
2023/12/09 05:58:13;;;;;;;46.35;19.88;;;;;;;6.18;59.79;101126.81;5007217;28;20515;-38
2023/12/09 06:00:39;;;;;;;44.08;20.25;;;;;;;6.18;60.17;101132.03;5002278;28;20041;-38
2023/12/09 06:03:04;;;;;;;45.08;18.40;;;;;;;6.19;60.11;101124.16;5002413;28;20025;-42
2023/12/09 06:05:29;;;;;;;27.50;12.18;;;;;;;6.19;59.98;101120.69;5006693;28;20112;-38
2023/12/09 06:07:55;;;;;;;50.83;20.70;;;;;;;6.19;60.13;101107.63;4998751;28;20134;-39
2023/12/09 06:10:20;;;;;;;55.13;21.27;;;;;;;6.19;60.07;101115.47;4989780;28;20030;-41
2023/12/09 06:12:46;;;;;;;47.15;20.58;;;;;;;6.18;60.04;101113.75;5001051;28;20373;-40
2023/12/09 06:15:11;;;;;;;47.60;20.42;;;;;;;6.17;60.13;101114.66;5003517;28;20026;-39
2023/12/09 06:17:37;;;;;;;51.22;19.88;;;;;;;6.19;59.93;101103.25;5008369;28;20029;-38
2023/12/09 06:20:06;;;;;;;49.95;17.95;;;;;;;6.21;59.91;101113.66;4986748;28;20739;-38
2023/12/09 06:22:32;;;;;;;45.38;19.27;;;;;;;6.23;60.10;101104.00;5009476;28;20125;-39
2023/12/09 06:24:58;;;;;;;45.05;17.98;;;;;;;6.22;60.14;101097.06;5002235;28;20113;-39
2023/12/09 06:27:24;;;;;;;48.60;21.13;;;;;;;6.23;60.01;101106.63;4999782;28;20037;-38
2023/12/09 06:29:51;;;;;;;38.97;17.08;;;;;;;6.24;60.07;101103.09;4996774;28;20033;-40
2023/12/09 06:32:16;;;;;;;56.63;21.42;;;;;;;6.25;60.25;101110.03;4999949;28;20034;-39
2023/12/09 06:34:42;;;;;;;52.13;20.77;;;;;;;6.28;59.98;101109.91;5008005;28;20034;-39
2023/12/09 06:37:07;;;;;;;49.35;21.52;;;;;;;6.27;60.05;101109.97;4999651;28;20022;-38
2023/12/09 06:39:33;;;;;;;52.28;19.92;;;;;;;6.19;60.42;101110.22;5008790;28;20034;-39
2023/12/09 06:42:00;;;;;;;49.17;20.38;;;;;;;6.22;60.13;101107.53;4999849;28;20026;-38
2023/12/09 06:44:25;;;;;;;47.30;19.77;;;;;;;6.25;59.99;101110.03;5005582;28;20061;-39
2023/12/09 06:46:51;;;;;;;49.75;21.52;;;;;;;6.25;59.94;101112.66;5000895;28;20100;-40
2023/12/09 06:49:20;;;;;;;48.55;20.63;;;;;;;6.23;60.44;101109.22;4995639;28;20764;-39
2023/12/09 06:51:49;;;;;;;53.80;21.65;;;;;;;6.25;60.01;101102.19;4996923;28;20447;-38
2023/12/09 06:54:15;;;;;;;56.00;24.20;;;;;;;6.20;60.49;101106.72;5003985;28;20028;-40
2023/12/09 06:56:41;;;;;;;55.15;20.52;;;;;;;6.24;60.03;101106.56;5003643;28;20029;-39
2023/12/09 06:59:06;;;;;;;53.97;20.30;;;;;;;6.24;60.61;101103.09;4984251;28;20037;-38
2023/12/09 07:01:31;;;;;;;57.83;22.85;;;;;;;6.24;60.43;101103.09;4998469;28;20030;-39
2023/12/09 07:03:57;;;;;;;54.45;21.63;;;;;;;6.22;60.43;101104.91;5001383;28;20491;-40
2023/12/09 07:06:24;;;;;;;49.03;20.60;;;;;;;6.23;60.35;101104.00;5010140;28;20033;-38
2023/12/09 07:08:50;;;;;;;53.50;21.35;;;;;;;6.23;60.63;101106.63;4999295;28;20057;-41
2023/12/09 07:11:18;;;;;;;54.53;21.95;;;;;;;6.27;60.34;101100.38;5004883;28;20034;-40
2023/12/09 07:13:44;;;;;;;49.10;21.17;;;;;;;6.27;60.08;101103.00;5002664;28;20501;-40
2023/12/09 07:16:10;;;;;;;57.78;21.17;;;;;;;6.25;60.72;101110.03;5007044;28;20129;-40
2023/12/09 07:18:46;;;;;;;54.90;22.08;;;;;;;6.28;60.35;101109.06;5003872;28;20063;-38
2023/12/09 07:21:15;;;;;;;55.50;24.40;;;;;;;6.28;60.42;101111.69;5007434;28;20566;-38
2023/12/09 07:23:41;;;;;;;59.35;22.45;;;;;;;6.20;61.01;101117.16;5005220;28;20493;-38
2023/12/09 07:26:07;;;;;;;47.80;20.27;;;;;;;6.24;60.33;101111.78;4998700;28;20065;-38
2023/12/09 07:28:33;;;;;;;51.38;21.08;;;;;;;6.25;60.48;101104.81;4993990;28;20455;-38
2023/12/09 07:30:59;;;;;;;37.13;13.48;;;;;;;6.26;60.55;101103.91;5001845;28;20045;-39
2023/12/09 07:33:25;;;;;;;56.08;20.88;;;;;;;6.28;60.27;101107.28;4996310;28;20524;-39
2023/12/09 07:35:51;;;;;;;54.05;23.65;;;;;;;6.24;60.63;101114.41;5008750;28;20045;-39
2023/12/09 07:38:17;;;;;;;57.35;22.80;;;;;;;6.24;60.67;101124.84;4999718;28;20471;-39
2023/12/09 07:40:43;;;;;;;49.90;20.17;;;;;;;6.27;60.36;101120.44;4998102;28;20060;-40
2023/12/09 07:43:09;;;;;;;54.97;21.58;;;;;;;6.24;60.99;101121.41;5002399;28;20398;-38
2023/12/09 07:45:34;;;;;;;55.10;24.63;;;;;;;6.27;60.78;101131.75;5007975;28;20033;-37
2023/12/09 07:48:03;;;;;;;61.55;22.27;;;;;;;6.34;60.45;101130.63;5004842;28;20054;-39
2023/12/09 07:50:32;;;;;;;50.75;21.20;;;;;;;6.30;60.69;101131.63;5012360;28;20033;-38
2023/12/09 07:52:58;;;;;;;54.78;20.38;;;;;;;6.34;60.80;101135.00;4998893;28;20033;-38
2023/12/09 07:55:24;;;;;;;54.38;21.00;;;;;;;6.31;60.78;101120.25;5006405;28;20045;-39
2023/12/09 07:57:49;;;;;;;52.25;21.90;;;;;;;6.31;60.83;101135.09;5004250;28;20374;-38
2023/12/09 08:00:16;;;;;;;54.65;21.05;;;;;;;6.34;60.70;101127.16;5015003;28;20065;-38
2023/12/09 08:02:41;;;;;;;58.47;21.80;;;;;;;6.35;60.61;101127.09;5007824;28;20794;-38
2023/12/09 08:05:07;;;;;;;46.08;20.30;;;;;;;6.36;60.99;101138.41;5009302;28;20022;-38
2023/12/09 08:07:32;;;;;;;50.53;20.52;;;;;;;6.40;60.52;101134.78;5011385;28;20034;-39
2023/12/09 08:09:58;;;;;;;51.22;19.73;;;;;;;6.40;60.24;101119.97;5002142;28;20034;-38
2023/12/09 08:12:23;;;;;;;59.75;21.98;;;;;;;6.36;60.72;101117.50;5000290;28;20038;-38
2023/12/09 08:14:49;;;;;;;58.95;23.33;;;;;;;6.34;61.33;101120.16;5005622;28;20030;-38
2023/12/09 08:17:14;;;;;;;66.93;24.20;;;;;;;6.35;60.91;101116.66;5003110;28;20030;-37
2023/12/09 08:19:39;;;;;;;54.35;19.98;;;;;;;6.43;61.05;101126.84;5008726;28;20045;-39
2023/12/09 08:22:06;;;;;;;59.67;23.13;;;;;;;6.45;60.81;101127.66;4999035;28;20028;-38
2023/12/09 08:24:35;;;;;;;51.45;21.23;;;;;;;6.52;60.77;101128.28;5012059;28;20539;-41
2023/12/09 08:27:00;;;;;;;45.17;19.13;;;;;;;6.51;60.71;101123.97;4998887;28;20042;-38
2023/12/09 08:29:26;;;;;;;53.13;19.50;;;;;;;6.50;60.68;101120.50;5001479;28;20038;-38
2023/12/09 08:31:51;;;;;;;62.03;22.60;;;;;;;6.48;60.66;101126.69;5001644;28;20120;-41
2023/12/09 08:34:17;;;;;;;56.47;22.65;;;;;;;6.53;60.77;101120.38;5002553;28;20168;-40
2023/12/09 08:36:43;;;;;;;55.55;21.00;;;;;;;6.49;60.93;101117.94;4990041;28;21314;-38
2023/12/09 08:39:08;;;;;;;58.80;21.63;;;;;;;6.53;61.05;101116.94;4998551;28;20540;-39
2023/12/09 08:41:34;;;;;;;58.05;24.27;;;;;;;6.50;61.64;101115.28;5000183;28;20034;-38
2023/12/09 08:44:00;;;;;;;65.75;23.30;;;;;;;6.53;60.93;101119.53;5002349;28;20382;-41
2023/12/09 08:46:25;;;;;;;57.83;21.55;;;;;;;6.58;60.96;101112.38;5003161;28;20029;-40
2023/12/09 08:48:51;;;;;;;58.08;21.92;;;;;;;6.60;60.61;101109.72;5006817;28;20077;-38
2023/12/09 08:51:17;;;;;;;56.65;22.25;;;;;;;6.63;60.69;101110.47;5005349;28;20033;-40
2023/12/09 08:53:42;;;;;;;38.47;14.63;;;;;;;6.63;60.68;101104.38;5007979;28;20044;-39
2023/12/09 08:56:08;;;;;;;68.25;23.17;;;;;;;6.57;61.25;101105.47;4997766;28;20034;-38
2023/12/09 08:58:34;;;;;;;55.47;22.23;;;;;;;6.58;61.04;101107.16;5004643;28;20116;-39
2023/12/09 09:00:59;;;;;;;56.55;20.75;;;;;;;6.52;61.28;101107.38;5009002;28;20041;-39
2023/12/09 09:03:25;;;;;;;56.20;21.75;;;;;;;6.57;60.69;101105.47;4994337;28;20057;-38
2023/12/09 09:05:50;;;;;;;56.22;20.30;;;;;;;6.59;60.81;101101.00;5001067;28;20049;-41
2023/12/09 09:08:16;;;;;;;57.83;21.38;;;;;;;6.63;60.82;101100.00;4994523;28;20137;-39
2023/12/09 09:10:41;;;;;;;55.63;21.67;;;;;;;6.63;60.97;101105.22;5001762;28;20034;-40
2023/12/09 09:13:07;;;;;;;58.63;21.73;;;;;;;6.61;61.15;101107.03;4999144;28;20037;-39
2023/12/09 09:15:33;;;;;;;62.10;20.75;;;;;;;6.66;61.01;101104.25;5004840;28;20038;-42
2023/12/09 09:17:58;;;;;;;78.15;29.98;;;;;;;6.64;61.29;101106.09;4995569;28;20069;-39
2023/12/09 09:20:24;;;;;;;65.40;26.65;;;;;;;6.68;60.90;101107.69;5007931;28;20037;-38
2023/12/09 09:22:49;;;;;;;67.13;21.55;;;;;;;6.71;60.72;101097.97;5012791;28;20120;-41
2023/12/09 09:25:15;;;;;;;52.30;18.65;;;;;;;6.73;60.67;101084.84;5001187;28;20034;-40
2023/12/09 09:27:41;;;;;;;52.05;19.55;;;;;;;6.76;60.79;101086.47;4999641;28;20040;-40
2023/12/09 09:30:07;;;;;;;56.83;18.45;;;;;;;6.81;60.72;101087.19;5010084;28;20061;-38
2023/12/09 09:32:32;;;;;;;69.03;21.52;;;;;;;6.81;60.55;101092.41;5009047;28;20476;-38
2023/12/09 09:34:58;;;;;;;56.65;19.58;;;;;;;6.82;60.61;101086.28;5000498;28;20417;-39
2023/12/09 09:37:23;;;;;;;65.80;24.60;;;;;;;6.77;61.13;101090.81;4998419;28;20084;-39
2023/12/09 09:39:49;;;;;;;74.20;26.80;;;;;;;6.76;61.79;101091.72;5002200;28;20030;-39
2023/12/09 09:42:33;;;;;;;85.38;30.67;;;;;;;6.76;61.65;101084.72;5008060;28;20037;-38
2023/12/09 09:45:18;;;;;;;80.25;27.90;;;;;;;6.88;61.22;101083.44;5009751;28;20030;-39
2023/12/09 09:47:47;;;;;;;72.53;23.45;;;;;;;6.88;60.56;101079.97;5005279;28;20087;-40
2023/12/09 09:50:16;;;;;;;57.75;21.17;;;;;;;6.90;61.05;101075.53;5005896;28;20017;-39
2023/12/09 09:52:42;;;;;;;78.10;24.30;;;;;;;6.86;60.86;101074.78;4998071;28;20083;-40
2023/12/09 09:55:08;;;;;;;71.45;22.02;;;;;;;6.88;61.09;101078.22;5007346;28;20029;-38
2023/12/09 09:57:34;;;;;;;52.38;18.30;;;;;;;6.91;60.82;101072.00;5001646;28;20051;-39
2023/12/09 10:00:00;;;;;;;62.42;21.77;;;;;;;6.93;60.96;101073.63;4997936;28;20029;-39
2023/12/09 10:02:26;;;;;;;59.53;21.58;;;;;;;6.93;60.79;101060.56;5002002;28;20033;-39
2023/12/09 10:04:53;;;;;;;59.50;22.98;;;;;;;6.93;60.71;101057.09;5004161;28;20065;-38
2023/12/09 10:07:19;;;;;;;62.05;20.42;;;;;;;6.94;60.75;101054.41;5006687;28;20060;-40
2023/12/09 10:09:44;;;;;;;76.90;28.60;;;;;;;6.90;61.54;101058.06;5010449;28;20080;-38
2023/12/09 10:12:10;;;;;;;79.00;28.25;;;;;;;6.95;61.09;101050.06;5002553;28;20046;-39
2023/12/09 10:14:35;;;;;;;69.50;24.55;;;;;;;6.99;60.58;101039.41;5008076;28;20037;-39
2023/12/09 10:17:02;;;;;;;61.90;21.63;;;;;;;6.99;61.23;101039.41;4998226;28;20485;-39
2023/12/09 10:19:28;;;;;;;60.50;20.40;;;;;;;6.97;61.58;101036.00;5007345;28;20144;-39
2023/12/09 10:21:53;;;;;;;67.68;22.85;;;;;;;7.04;60.94;101035.75;5001562;28;20544;-41
2023/12/09 10:24:19;;;;;;;67.03;24.50;;;;;;;7.09;60.65;101036.44;4999472;28;20038;-41
2023/12/09 10:26:45;;;;;;;61.45;20.10;;;;;;;7.07;60.89;101038.25;5004788;28;20029;-40
2023/12/09 10:29:11;;;;;;;63.10;20.35;;;;;;;7.11;60.78;101029.38;5006055;28;20061;-39
2023/12/09 10:31:37;;;;;;;50.75;19.33;;;;;;;7.15;60.92;101033.59;5002523;28;20069;-39
2023/12/09 10:34:03;;;;;;;59.25;20.35;;;;;;;7.18;60.97;101023.00;4982008;28;20033;-40
2023/12/09 10:36:32;;;;;;;59.22;20.02;;;;;;;7.21;60.79;101030.72;4999252;28;20489;-40
2023/12/09 10:38:57;;;;;;;58.95;20.98;;;;;;;7.19;60.84;101027.31;4981393;28;20584;-39
2023/12/09 10:41:25;;;;;;;57.95;20.67;;;;;;;7.25;60.74;101021.84;4995467;28;20121;-40
2023/12/09 10:43:53;;;;;;;73.55;26.67;;;;;;;7.27;60.77;101020.03;4997201;28;20405;-39
2023/12/09 10:46:19;;;;;;;74.07;26.52;;;;;;;7.30;60.71;101008.56;5000123;28;20075;-40
2023/12/09 10:48:44;;;;;;;66.68;23.35;;;;;;;7.35;60.95;100997.91;4990602;28;20037;-40
2023/12/09 10:51:10;;;;;;;78.32;22.90;;;;;;;7.41;61.21;100997.66;4990984;28;20084;-41
2023/12/09 10:53:35;;;;;;;61.28;24.80;;;;;;;7.40;61.09;100988.97;4979536;28;20121;-40
2023/12/09 10:56:02;;;;;;;70.00;21.80;;;;;;;7.51;60.88;100985.91;4982108;28;20034;-42
2023/12/09 10:58:27;;;;;;;66.82;24.25;;;;;;;7.56;61.11;100985.72;4986091;28;20034;-40
2023/12/09 11:00:56;;;;;;;76.43;27.92;;;;;;;7.65;60.76;100979.22;4997123;28;20034;-41
2023/12/09 11:03:24;;;;;;;54.30;20.42;;;;;;;7.67;60.56;100970.41;4993870;28;20045;-41
2023/12/09 11:05:51;;;;;;;52.15;18.80;;;;;;;7.71;60.64;100968.50;4987366;28;20050;-40
2023/12/09 11:08:17;;;;;;;62.33;21.92;;;;;;;7.69;61.11;100965.09;4997380;28;20101;-41
2023/12/09 11:10:44;;;;;;;56.97;19.63;;;;;;;7.73;60.86;100961.44;5002909;28;20491;-42
2023/12/09 11:13:10;;;;;;;35.72;13.88;;;;;;;7.75;60.67;100960.44;5001523;28;20034;-36